createdAt,value
2023-05-15T00:02:34.217Z,54.13
2023-05-15T00:07:31.501Z,53.56
2023-05-15T00:12:28.525Z,53.31
2023-05-15T00:17:26.467Z,53.19
2023-05-15T00:22:23.513Z,52.81
2023-05-15T00:27:20.447Z,52.89
2023-05-15T00:32:17.247Z,52.69
2023-05-15T00:37:15.588Z,53.19
2023-05-15T00:42:13.361Z,53.78
2023-05-15T00:47:10.878Z,54.10
2023-05-15T00:52:08.164Z,54.28
2023-05-15T00:57:06.771Z,54.67
2023-05-15T01:02:04.077Z,54.55
2023-05-15T01:07:01.516Z,55.08
2023-05-15T01:12:00.536Z,55.89
2023-05-15T01:16:58.079Z,55.79
2023-05-15T01:22:25.448Z,55.63
2023-05-15T01:27:30.165Z,55.95
2023-05-15T01:32:34.211Z,55.93
2023-05-15T01:37:34.402Z,55.25
2023-05-15T01:42:34.726Z,54.37
2023-05-15T01:47:36.979Z,54.30
2023-05-15T01:52:36.846Z,54.08
2023-05-15T01:57:35.848Z,53.87
2023-05-15T02:02:33.350Z,53.74
2023-05-15T02:07:32.598Z,53.64
2023-05-15T02:12:31.646Z,53.36
2023-05-15T02:17:29.221Z,52.94
2023-05-15T02:22:25.998Z,52.64
2023-05-15T02:27:26.608Z,52.33
2023-05-15T02:32:33.518Z,52.05
2023-05-15T02:37:33.564Z,52.13
2023-05-15T02:42:31.849Z,52.95
2023-05-15T02:47:30.926Z,53.81
2023-05-15T02:52:27.847Z,54.01
2023-05-15T02:57:24.777Z,55.48
2023-05-15T03:02:21.517Z,56.76
2023-05-15T03:07:19.173Z,57.06
2023-05-15T03:12:16.629Z,58.45
2023-05-15T03:17:13.464Z,59.44
2023-05-15T03:22:10.367Z,59.35
2023-05-15T03:27:08.402Z,59.58
2023-05-15T03:32:05.777Z,60.00
2023-05-15T03:37:03.022Z,59.70
2023-05-15T03:41:59.839Z,58.95
2023-05-15T03:46:57.348Z,58.75
2023-05-15T03:51:54.327Z,58.21
2023-05-15T03:56:51.172Z,58.24
2023-05-15T04:02:02.930Z,58.09
2023-05-15T04:07:03.098Z,57.99
2023-05-15T04:11:59.914Z,57.51
2023-05-15T04:17:05.209Z,56.47
2023-05-15T04:22:02.513Z,55.62
2023-05-15T04:26:59.324Z,55.23
2023-05-15T04:32:33.358Z,54.62
2023-05-15T04:37:44.882Z,55.20
2023-05-15T04:42:42.721Z,55.42
2023-05-15T04:47:39.542Z,54.86
2023-05-15T04:53:10.044Z,53.60
2023-05-15T04:58:11.363Z,53.07
2023-05-15T05:03:08.260Z,53.15
2023-05-15T05:08:08.177Z,52.56
2023-05-15T05:13:22.816Z,52.10
2023-05-15T05:18:34.570Z,51.50
2023-05-15T05:23:35.566Z,49.63
2023-05-15T05:28:35.724Z,45.92
2023-05-15T05:33:32.614Z,42.96
2023-05-15T05:38:43.962Z,40.91
2023-05-15T05:44:00.214Z,40.11
2023-05-15T05:48:59.298Z,39.35
2023-05-15T05:53:56.177Z,37.70
2023-05-15T05:58:53.759Z,37.64
2023-05-15T06:04:22.896Z,37.89
2023-05-15T06:09:25.914Z,35.89
2023-05-15T06:14:23.649Z,35.94
2023-05-15T06:19:21.223Z,36.62
2023-05-15T06:24:32.853Z,37.49
2023-05-15T06:29:40.421Z,34.97
2023-05-15T06:34:43.026Z,31.40
2023-05-15T06:40:09.103Z,27.83
2023-05-15T06:45:08.194Z,27.67
2023-05-15T06:50:07.393Z,27.82
2023-05-15T06:55:05.930Z,28.31
2023-05-15T07:00:26.877Z,28.88
2023-05-15T07:05:40.472Z,28.38
2023-05-15T07:10:37.315Z,27.57
2023-05-15T07:15:35.177Z,26.50
2023-05-15T07:20:34.286Z,26.40
2023-05-15T07:25:34.380Z,26.26
2023-05-15T07:30:32.990Z,25.06
2023-05-15T07:35:30.633Z,24.18
2023-05-15T07:40:30.277Z,23.28
2023-05-15T07:46:00.981Z,23.49
2023-05-15T07:51:01.829Z,25.65
2023-05-15T07:55:59.919Z,25.87
2023-05-15T08:01:00.838Z,26.28
2023-05-15T08:06:26.778Z,26.58
2023-05-15T08:11:23.643Z,28.21
2023-05-15T08:16:20.415Z,29.38
2023-05-15T08:21:17.968Z,30.08
2023-05-15T08:26:15.752Z,30.64
2023-05-15T08:31:12.688Z,30.19
2023-05-15T08:36:27.757Z,30.78
2023-05-15T08:46:36.334Z,29.13
2023-05-15T08:51:43.960Z,27.54
2023-05-15T08:57:10.839Z,25.66
2023-05-15T09:02:11.622Z,27.12
2023-05-15T09:07:10.728Z,27.56
2023-05-15T09:12:14.083Z,27.61
2023-05-15T09:17:11.188Z,26.55
2023-05-15T09:22:16.313Z,27.20
2023-05-15T09:27:14.083Z,28.08
2023-05-15T09:32:21.185Z,28.21
2023-05-15T09:37:33.267Z,28.60
2023-05-15T09:42:54.872Z,27.63
2023-05-15T09:47:54.759Z,25.59
2023-05-15T09:53:02.135Z,25.62
2023-05-15T09:58:26.892Z,24.27
2023-05-15T10:03:24.770Z,24.29
2023-05-15T10:08:27.009Z,24.31
2023-05-15T10:13:29.822Z,24.16
2023-05-15T10:18:30.241Z,23.59
2023-05-15T10:23:29.159Z,23.80
2023-05-15T10:28:28.329Z,25.25
2023-05-15T10:33:26.478Z,26.28
2023-05-15T10:38:24.914Z,26.14
2023-05-15T10:43:46.080Z,26.36
2023-05-15T10:48:45.749Z,25.77
2023-05-15T10:53:43.341Z,26.80
2023-05-15T10:58:46.652Z,27.74
2023-05-15T11:03:49.474Z,27.08
2023-05-15T11:08:47.836Z,26.63
2023-05-15T11:14:16.859Z,25.56
2023-05-15T11:19:23.284Z,25.60
2023-05-15T11:24:21.794Z,25.70
2023-05-15T11:29:19.143Z,26.25
2023-05-15T11:34:28.465Z,26.26
2023-05-15T11:39:26.396Z,26.22
2023-05-15T11:44:24.242Z,25.82
2023-05-15T11:49:22.628Z,26.97
2023-05-15T11:54:20.705Z,27.18
2023-05-15T11:59:21.554Z,27.87
2023-05-15T12:04:19.549Z,27.81
2023-05-15T12:09:19.375Z,27.24
2023-05-15T12:14:16.463Z,26.43
2023-05-15T12:19:15.229Z,26.25
2023-05-15T12:24:27.680Z,25.89
2023-05-15T12:29:28.859Z,25.34
2023-05-15T12:34:37.692Z,25.12
2023-05-15T12:39:35.653Z,25.66
2023-05-15T12:44:34.414Z,27.38
2023-05-15T12:49:35.764Z,27.65
2023-05-15T12:54:43.697Z,28.68
2023-05-15T13:00:02.537Z,28.28
2023-05-15T13:05:05.360Z,30.12
2023-05-15T13:10:04.645Z,29.96
2023-05-15T13:15:04.977Z,30.14
2023-05-15T13:20:14.654Z,30.42
2023-05-15T13:25:11.866Z,30.41
2023-05-15T13:30:10.596Z,30.47
2023-05-15T13:35:09.762Z,30.68
2023-05-15T13:40:09.832Z,30.74
2023-05-15T13:45:08.909Z,30.92
2023-05-15T13:50:09.844Z,30.63
2023-05-15T13:55:10.895Z,30.52
2023-05-15T14:00:11.542Z,30.91
2023-05-15T14:05:08.996Z,30.98
2023-05-15T14:10:07.966Z,30.89
2023-05-15T14:15:05.839Z,30.22
2023-05-15T14:20:09.466Z,30.11
2023-05-15T14:25:08.912Z,30.38
2023-05-15T14:30:09.973Z,30.51
2023-05-15T14:35:07.267Z,30.38
2023-05-15T14:40:06.420Z,30.54
2023-05-15T14:45:07.921Z,29.67
2023-05-15T14:50:05.419Z,29.54
2023-05-15T15:00:05.681Z,28.90
2023-05-15T15:05:07.405Z,29.22
2023-05-15T15:10:05.130Z,29.16
2023-05-15T15:15:04.885Z,29.58
2023-05-15T15:20:06.489Z,30.07
2023-05-15T15:25:05.314Z,29.96
2023-05-15T15:30:04.084Z,30.55
2023-05-15T15:35:03.327Z,30.96
2023-05-15T15:40:02.432Z,31.23
2023-05-15T15:44:59.917Z,31.54
2023-05-15T15:49:56.691Z,31.75
2023-05-15T15:54:53.909Z,31.78
2023-05-15T15:59:52.318Z,31.66
2023-05-15T16:04:49.958Z,31.94
2023-05-15T16:09:51.404Z,32.42
2023-05-15T16:15:06.861Z,33.16
2023-05-15T16:20:11.806Z,33.65
2023-05-15T16:25:09.092Z,33.32
2023-05-15T16:30:08.657Z,33.27
2023-05-15T16:35:07.106Z,33.27
2023-05-15T16:40:04.587Z,32.93
2023-05-15T16:45:01.425Z,32.93
2023-05-15T16:49:59.039Z,33.17
2023-05-15T16:54:55.856Z,33.64
2023-05-15T16:59:55.373Z,34.30
2023-05-15T17:04:52.712Z,34.98
2023-05-15T17:09:50.451Z,34.74
2023-05-15T17:14:47.298Z,34.89
2023-05-15T17:19:44.160Z,34.86
2023-05-15T17:24:50.732Z,34.88
2023-05-15T17:29:49.369Z,34.17
2023-05-15T17:34:46.768Z,34.45
2023-05-15T17:39:43.667Z,34.23
2023-05-15T17:44:40.457Z,33.88
2023-05-15T17:49:38.399Z,33.86
2023-05-15T17:54:35.284Z,34.68
2023-05-15T17:59:32.395Z,35.39
2023-05-15T18:04:29.290Z,35.59
2023-05-15T18:09:31.090Z,36.04
2023-05-15T18:14:27.947Z,36.14
2023-05-15T18:19:25.040Z,36.91
2023-05-15T18:24:22.047Z,37.34
2023-05-15T18:29:19.684Z,37.98
2023-05-15T18:34:16.643Z,38.96
2023-05-15T18:39:14.905Z,39.12
2023-05-15T18:44:11.677Z,38.93
2023-05-15T18:49:09.306Z,39.04
2023-05-15T18:54:06.486Z,39.43
2023-05-15T18:59:03.292Z,39.44
2023-05-15T19:04:00.264Z,39.71
2023-05-15T19:08:57.938Z,40.12
2023-05-15T19:13:54.820Z,40.92
2023-05-15T19:18:51.685Z,41.35
2023-05-15T19:23:50.467Z,42.29
2023-05-15T19:28:47.962Z,42.84
2023-05-15T19:33:45.163Z,43.67
2023-05-15T19:38:42.541Z,44.09
2023-05-15T19:43:39.390Z,44.62
2023-05-15T19:48:37.048Z,45.60
2023-05-15T19:53:33.815Z,45.72
2023-05-15T19:58:31.273Z,45.82
2023-05-15T20:03:32.158Z,46.57
2023-05-15T20:08:29.974Z,46.69
2023-05-15T20:13:27.344Z,47.12
2023-05-15T20:18:24.339Z,46.93
2023-05-15T20:23:21.595Z,47.14
2023-05-15T20:28:19.365Z,47.89
2023-05-15T20:33:16.530Z,47.90
2023-05-15T20:38:13.924Z,48.39
2023-05-15T20:43:10.965Z,47.98
2023-05-15T20:48:10.352Z,48.09
2023-05-15T20:53:07.591Z,48.57
2023-05-15T20:58:04.453Z,48.95
2023-05-15T21:03:01.640Z,49.10
2023-05-15T21:07:59.354Z,49.38
2023-05-15T21:12:59.014Z,50.16
2023-05-15T21:17:56.403Z,50.51
2023-05-15T21:22:53.205Z,50.52
2023-05-15T21:27:50.770Z,50.67
2023-05-15T21:32:47.707Z,51.33
2023-05-15T21:37:44.719Z,52.24
2023-05-15T21:42:42.445Z,51.62
2023-05-15T21:47:40.083Z,51.81
2023-05-15T21:52:36.981Z,52.12
2023-05-15T21:57:33.840Z,52.93
2023-05-15T22:02:30.700Z,53.18
2023-05-15T22:07:28.183Z,53.05
2023-05-15T22:12:24.951Z,52.94
2023-05-15T22:17:23.413Z,51.94
2023-05-15T22:22:20.736Z,51.88
2023-05-15T22:27:18.306Z,52.03
2023-05-15T22:32:15.064Z,51.88
2023-05-15T22:37:12.418Z,51.01
2023-05-15T22:42:09.298Z,50.41
2023-05-15T22:47:07.097Z,50.30
2023-05-15T22:52:04.338Z,50.31
2023-05-15T22:57:01.097Z,49.95
2023-05-15T23:01:58.168Z,49.64
2023-05-15T23:06:55.722Z,49.68
2023-05-15T23:11:52.453Z,49.35
2023-05-15T23:16:49.416Z,49.38
2023-05-15T23:21:46.258Z,49.16
2023-05-15T23:26:43.963Z,49.25
2023-05-15T23:31:42.332Z,49.66
2023-05-15T23:36:39.270Z,50.06
2023-05-15T23:41:36.048Z,49.91
2023-05-15T23:46:34.869Z,49.87
2023-05-15T23:51:31.864Z,50.03
2023-05-15T23:56:28.682Z,49.52
